Vance, South Carolina
Current Conditions -  °F | °C
As of 9:53 PM on Friday 19 Dec 2014 (Local Time) from KOGB Reporting Station
Clear Clear  
Wind Chill: 50°   Ceiling: Unl
Heat Index: 50°   Visibility: 9mi
Dew Point: 42°   Wind: 5mph
Humidity: 74%   Direction: 90°E
Pressure: 30.14"   Gusts: NA
Location:  33.43°N, 80.42°W
Report Text: KOGB 200253Z AUTO 09004KT 9SM CLR 10/06 A3014 RMK AO2 SLP208 T01000056 51009
Loading
Personal Weather Stations






























Interactive Weather Map New forecast layout! Learn more

10-Day Weather Forecast

Advertisements
Track Severe Weather on mobile